Time;durP1;ratioP1;P1;durP2;ratioP2;P2;SDS_P1;SDS_P2;PMS_P1;PMS_P2;Temp;Humidity;BMP_temperature;BMP_pressure;BME280_temperature;BME280_humidity;BME280_pressure;Samples;Min_cycle;Max_cycle;Signal;HPM_P1;HPM_P2
2021/06/18 00:00:21;;;;;;;44.03;7.38;;;28.80;56.20;;;;;;5005572;28;20464;-59
2021/06/18 00:02:46;;;;;;;46.97;8.35;;;28.80;56.30;;;;;;5004972;28;20573;-60
2021/06/18 00:05:12;;;;;;;36.83;7.90;;;28.80;56.40;;;;;;5005954;28;20116;-61
2021/06/18 00:07:38;;;;;;;33.00;8.20;;;28.70;56.40;;;;;;5003613;28;20441;-58
2021/06/18 00:10:05;;;;;;;34.17;7.78;;;28.70;56.60;;;;;;4986552;28;20085;-58
2021/06/18 00:12:30;;;;;;;43.05;8.63;;;28.70;56.70;;;;;;5036852;28;20087;-60
2021/06/18 00:14:59;;;;;;;36.58;7.57;;;28.60;56.70;;;;;;5004908;28;20034;-60
2021/06/18 00:17:25;;;;;;;32.05;7.40;;;28.60;56.80;;;;;;5003385;28;20026;-60
2021/06/18 00:19:50;;;;;;;37.35;6.85;;;28.60;56.90;;;;;;5004159;28;20100;-61
2021/06/18 00:22:16;;;;;;;33.05;7.88;;;28.60;56.90;;;;;;5005042;28;20516;-61
2021/06/18 00:24:41;;;;;;;27.05;6.57;;;28.50;56.90;;;;;;5002369;28;20064;-60
2021/06/18 00:27:07;;;;;;;29.88;6.90;;;28.50;57.00;;;;;;5005400;28;20026;-61
2021/06/18 00:29:32;;;;;;;36.95;7.32;;;28.50;57.00;;;;;;5004709;28;20037;-60
2021/06/18 00:31:58;;;;;;;30.67;7.00;;;28.50;57.70;;;;;;5005013;28;20022;-61
2021/06/18 00:34:23;;;;;;;28.75;6.80;;;28.40;57.70;;;;;;5003480;28;20030;-61
2021/06/18 00:36:49;;;;;;;32.90;6.85;;;28.40;57.20;;;;;;5005205;28;20454;-60
2021/06/18 00:39:14;;;;;;;23.52;7.15;;;28.40;57.30;;;;;;5002385;28;20916;-59
2021/06/18 00:41:40;;;;;;;22.23;6.60;;;28.40;57.40;;;;;;5003425;28;20044;-60
2021/06/18 00:44:06;;;;;;;20.27;6.05;;;28.40;57.40;;;;;;5003433;28;20037;-60
2021/06/18 00:46:31;;;;;;;20.92;5.63;;;28.30;57.40;;;;;;5003555;28;20474;-60
2021/06/18 00:48:57;;;;;;;24.77;6.50;;;28.30;57.50;;;;;;5003169;28;20037;-60
2021/06/18 00:51:23;;;;;;;25.25;5.88;;;28.30;57.50;;;;;;5019432;28;20108;-60
2021/06/18 00:53:49;;;;;;;22.80;5.82;;;28.30;57.60;;;;;;5004747;28;20387;-60
2021/06/18 00:56:15;;;;;;;19.58;5.78;;;28.30;57.60;;;;;;4985281;28;20064;-60
2021/06/18 00:58:40;;;;;;;25.30;5.95;;;28.30;57.70;;;;;;4985848;28;20049;-60
2021/06/18 01:01:06;;;;;;;20.90;5.55;;;28.20;57.70;;;;;;5004327;28;20056;-60
2021/06/18 01:03:31;;;;;;;14.48;5.38;;;28.20;57.80;;;;;;5004015;28;20772;-61
2021/06/18 01:05:57;;;;;;;16.40;5.97;;;28.20;58.50;;;;;;5003595;28;20063;-59
2021/06/18 01:08:43;;;;;;;19.90;6.05;;;28.20;58.00;;;;;;5002726;28;20056;-60
2021/06/18 01:11:17;;;;;;;19.55;6.22;;;28.20;58.00;;;;;;5002703;28;20069;-59
2021/06/18 01:14:05;;;;;;;22.27;5.88;;;28.10;57.90;;;;;;5001442;28;20030;-58
2021/06/18 01:16:55;;;;;;;15.95;6.10;;;28.10;58.10;;;;;;5002172;28;20033;-59
2021/06/18 01:19:29;;;;;;;18.95;5.85;;;28.10;58.20;;;;;;5002190;28;20120;-59
2021/06/18 01:22:02;;;;;;;22.63;5.50;;;28.10;58.30;;;;;;5001977;28;20054;-59
2021/06/18 01:24:47;;;;;;;17.92;6.65;;;28.00;58.30;;;;;;5016959;28;20033;-59
2021/06/18 01:27:32;;;;;;;24.80;6.35;;;28.00;58.40;;;;;;5002915;28;20113;-59
2021/06/18 01:30:09;;;;;;;17.55;5.70;;;28.00;58.40;;;;;;5001852;28;20104;-60
2021/06/18 01:32:53;;;;;;;15.30;6.97;;;28.00;58.50;;;;;;5002952;28;20504;-59
2021/06/18 01:35:19;;;;;;;17.38;5.95;;;28.00;58.50;;;;;;5003438;28;20049;-58
2021/06/18 01:37:47;;;;;;;18.17;5.93;;;27.90;58.50;;;;;;4989562;28;20022;-58
2021/06/18 01:40:13;;;;;;;14.38;5.30;;;27.90;58.60;;;;;;5006272;28;20456;-58
2021/06/18 01:42:40;;;;;;;17.55;5.70;;;27.90;58.60;;;;;;4974057;28;20490;-59
2021/06/18 01:45:07;;;;;;;13.02;5.55;;;27.90;58.70;;;;;;4971454;28;20041;-59
2021/06/18 01:47:33;;;;;;;13.05;5.13;;;27.90;58.70;;;;;;4990121;28;20426;-59
2021/06/18 01:49:59;;;;;;;13.90;5.32;;;27.80;58.70;;;;;;5023193;28;20121;-58
2021/06/18 01:52:25;;;;;;;11.93;5.60;;;27.80;58.70;;;;;;4990614;28;20026;-58
2021/06/18 01:54:50;;;;;;;13.15;5.35;;;27.80;58.80;;;;;;5006286;28;20492;-59
2021/06/18 01:57:16;;;;;;;13.80;5.60;;;27.80;58.80;;;;;;5005825;28;20641;-59
2021/06/18 01:59:41;;;;;;;8.55;5.45;;;27.80;58.90;;;;;;4989616;28;20113;-58
2021/06/18 02:02:07;;;;;;;11.93;5.85;;;27.80;59.00;;;;;;4990220;28;20038;-59
2021/06/18 02:04:33;;;;;;;10.38;5.10;;;27.70;58.90;;;;;;5005425;28;20025;-59
2021/06/18 02:06:59;;;;;;;10.23;5.47;;;27.80;59.00;;;;;;4990649;28;20056;-59
2021/06/18 02:09:25;;;;;;;9.60;5.85;;;27.70;59.00;;;;;;4989348;28;20061;-59
2021/06/18 02:11:51;;;;;;;13.73;5.90;;;27.70;59.00;;;;;;5006121;28;20026;-58
2021/06/18 02:14:18;;;;;;;11.18;5.22;;;27.70;59.10;;;;;;5007316;28;20026;-59
2021/06/18 02:16:51;;;;;;;11.48;5.72;;;27.70;59.10;;;;;;5006280;28;20040;-59
2021/06/18 02:19:17;;;;;;;7.00;4.72;;;27.70;59.20;;;;;;5005994;28;20053;-58
2021/06/18 02:21:44;;;;;;;12.15;4.70;;;27.60;59.20;;;;;;5005380;28;20049;-58
2021/06/18 02:24:10;;;;;;;10.27;5.38;;;27.60;59.30;;;;;;5005828;28;20132;-59
2021/06/18 02:26:35;;;;;;;10.40;5.47;;;27.60;59.40;;;;;;5006134;28;20451;-60
2021/06/18 02:29:01;;;;;;;10.23;5.43;;;27.60;59.40;;;;;;5007707;28;20034;-59
2021/06/18 02:31:26;;;;;;;10.45;4.93;;;27.50;59.50;;;;;;5007376;28;20429;-58
2021/06/18 02:33:52;;;;;;;7.15;4.90;;;27.50;59.50;;;;;;4987914;28;20073;-58
2021/06/18 02:36:18;;;;;;;11.75;5.03;;;27.50;59.60;;;;;;5005501;28;20173;-59
2021/06/18 02:38:44;;;;;;;9.73;5.15;;;27.50;59.70;;;;;;5005724;28;20048;-59
2021/06/18 02:41:10;;;;;;;13.18;5.20;;;27.50;59.70;;;;;;5005585;28;20185;-59
2021/06/18 02:43:36;;;;;;;9.50;5.07;;;27.40;59.70;;;;;;5007139;28;20030;-60
2021/06/18 02:46:01;;;;;;;11.25;5.07;;;27.40;60.50;;;;;;5003935;28;20281;-59
2021/06/18 02:48:29;;;;;;;12.68;4.82;;;27.40;59.90;;;;;;4988842;28;20070;-59
2021/06/18 02:51:16;;;;;;;10.13;5.53;;;27.40;59.90;;;;;;5005499;28;20018;-59
2021/06/18 02:54:09;;;;;;;6.78;4.88;;;27.40;60.00;;;;;;5006757;28;20022;-58
2021/06/18 02:56:41;;;;;;;9.05;6.28;;;27.30;59.90;;;;;;5002904;28;20109;-59
2021/06/18 02:59:29;;;;;;;10.95;6.28;;;27.30;60.00;;;;;;4984700;28;20037;-58
2021/06/18 03:02:00;;;;;;;10.93;5.07;;;27.40;60.10;;;;;;4985113;28;20045;-59
2021/06/18 03:04:26;;;;;;;8.60;4.63;;;27.30;60.10;;;;;;4986847;28;20382;-58
2021/06/18 03:06:59;;;;;;;12.18;5.07;;;27.30;60.10;;;;;;4968969;28;20045;-58
2021/06/18 03:09:36;;;;;;;9.00;5.18;;;27.20;60.10;;;;;;5002032;28;20048;-59
2021/06/18 03:12:03;;;;;;;6.43;5.15;;;27.20;60.10;;;;;;4984672;28;20041;-58
2021/06/18 03:14:30;;;;;;;9.40;4.97;;;27.20;60.20;;;;;;5002108;28;20018;-59
2021/06/18 03:16:59;;;;;;;5.88;4.68;;;27.20;60.30;;;;;;4984956;28;20643;-58
2021/06/18 03:19:33;;;;;;;11.43;5.05;;;27.20;60.30;;;;;;4985671;28;20084;-58
2021/06/18 03:22:00;;;;;;;12.80;5.80;;;27.20;60.40;;;;;;4987108;28;20088;-59
2021/06/18 03:24:28;;;;;;;8.07;5.90;;;27.10;60.40;;;;;;5004596;28;20048;-59
2021/06/18 03:26:53;;;;;;;10.60;5.97;;;27.10;60.40;;;;;;4988353;28;20038;-59
2021/06/18 03:29:19;;;;;;;7.40;5.20;;;27.10;60.40;;;;;;5003278;28;20038;-58
2021/06/18 03:31:44;;;;;;;6.95;5.22;;;27.10;60.70;;;;;;4988173;28;20033;-59
2021/06/18 03:34:10;;;;;;;8.55;5.25;;;27.10;60.50;;;;;;4987302;28;20022;-59
2021/06/18 03:36:35;;;;;;;8.20;5.07;;;27.10;60.60;;;;;;4988158;28;20487;-59
2021/06/18 03:39:01;;;;;;;8.40;4.70;;;27.00;61.20;;;;;;4988005;28;20552;-59
2021/06/18 03:41:26;;;;;;;6.78;4.93;;;27.00;60.60;;;;;;5005893;28;20433;-58
2021/06/18 03:43:52;;;;;;;7.90;4.72;;;27.00;60.70;;;;;;4988507;28;20477;-59
2021/06/18 03:46:18;;;;;;;10.98;5.28;;;26.90;60.60;;;;;;5000646;28;20076;-58
2021/06/18 03:48:44;;;;;;;8.15;5.47;;;27.00;60.80;;;;;;4985205;28;20137;-58
2021/06/18 03:51:09;;;;;;;8.65;5.10;;;26.90;60.70;;;;;;5003614;28;20018;-59
2021/06/18 03:53:35;;;;;;;7.93;5.32;;;26.90;60.80;;;;;;5001994;28;20029;-60
2021/06/18 03:56:01;;;;;;;6.28;4.50;;;26.90;60.80;;;;;;5003936;28;20026;-59
2021/06/18 03:58:26;;;;;;;11.23;5.07;;;26.80;60.90;;;;;;5003509;28;20037;-59
2021/06/18 04:00:52;;;;;;;7.97;5.25;;;26.80;60.90;;;;;;5004224;28;20470;-58
2021/06/18 04:03:20;;;;;;;7.28;4.97;;;26.80;61.00;;;;;;4986750;28;20120;-58
2021/06/18 04:05:45;;;;;;;6.38;4.55;;;26.80;61.00;;;;;;5003649;28;20377;-58
2021/06/18 04:08:12;;;;;;;10.32;5.10;;;26.80;61.10;;;;;;4988011;28;20320;-59
2021/06/18 04:10:42;;;;;;;5.22;4.72;;;26.80;61.10;;;;;;4986095;28;20073;-58
2021/06/18 04:13:07;;;;;;;9.40;5.05;;;26.70;61.10;;;;;;4988790;28;20116;-59
2021/06/18 04:15:33;;;;;;;9.48;5.32;;;26.80;61.20;;;;;;5004113;28;20036;-59
2021/06/18 04:17:58;;;;;;;8.23;4.30;;;26.70;61.20;;;;;;5005144;28;20022;-58
2021/06/18 04:20:24;;;;;;;6.30;4.72;;;26.70;61.30;;;;;;5003988;28;20054;-58
2021/06/18 04:22:50;;;;;;;7.25;5.03;;;26.70;61.40;;;;;;4987161;28;20053;-59
2021/06/18 04:25:16;;;;;;;7.65;4.30;;;26.60;61.40;;;;;;4987871;28;20029;-58
2021/06/18 04:27:42;;;;;;;6.72;4.45;;;26.60;61.60;;;;;;5004134;28;20124;-59
2021/06/18 04:30:08;;;;;;;5.60;4.72;;;26.60;61.60;;;;;;5003849;28;21115;-59
2021/06/18 04:32:34;;;;;;;8.70;4.90;;;26.60;61.60;;;;;;5004945;28;20037;-59
2021/06/18 04:34:59;;;;;;;9.70;4.53;;;26.60;61.80;;;;;;4986086;28;20034;-59
2021/06/18 04:37:25;;;;;;;8.10;5.25;;;26.60;61.90;;;;;;5003951;28;20026;-59
2021/06/18 04:39:50;;;;;;;11.27;4.85;;;26.60;62.00;;;;;;4987308;28;20385;-59
2021/06/18 04:42:16;;;;;;;10.65;5.25;;;26.60;62.10;;;;;;5005068;28;20494;-59
2021/06/18 04:44:41;;;;;;;8.95;4.82;;;26.50;61.90;;;;;;5004253;28;20065;-58
2021/06/18 04:47:07;;;;;;;8.20;4.78;;;26.50;61.90;;;;;;5003377;28;20045;-59
2021/06/18 04:49:33;;;;;;;9.93;4.88;;;26.50;61.90;;;;;;5003874;28;20037;-59
2021/06/18 04:51:58;;;;;;;8.18;4.50;;;26.50;62.00;;;;;;5003874;28;20432;-59
2021/06/18 04:54:24;;;;;;;10.77;4.60;;;26.50;61.90;;;;;;5003250;28;20041;-59
2021/06/18 04:56:49;;;;;;;7.43;4.35;;;26.50;61.90;;;;;;5004118;28;20553;-59
2021/06/18 04:59:19;;;;;;;6.65;4.55;;;26.50;62.00;;;;;;5003851;28;20912;-59
2021/06/18 05:01:44;;;;;;;10.32;4.50;;;26.50;62.00;;;;;;4987809;28;20049;-58
2021/06/18 05:04:10;;;;;;;7.20;5.03;;;26.50;62.10;;;;;;5004685;28;20022;-58
2021/06/18 05:06:35;;;;;;;9.38;4.55;;;26.50;62.40;;;;;;5004767;28;20026;-59
2021/06/18 05:09:01;;;;;;;7.75;5.45;;;26.40;62.40;;;;;;5003004;28;20037;-58
2021/06/18 05:11:26;;;;;;;8.30;5.22;;;26.50;62.50;;;;;;5007416;28;20382;-58
2021/06/18 05:13:52;;;;;;;8.00;4.53;;;26.50;62.50;;;;;;5008527;28;20095;-59
2021/06/18 05:16:17;;;;;;;10.52;5.07;;;26.50;62.50;;;;;;5007360;28;20379;-59
2021/06/18 05:18:43;;;;;;;12.02;5.32;;;26.40;62.50;;;;;;5008499;28;20042;-58
2021/06/18 05:21:08;;;;;;;7.93;4.68;;;26.40;62.50;;;;;;5008626;28;20076;-59
2021/06/18 05:23:34;;;;;;;9.68;4.85;;;26.40;62.60;;;;;;5005199;28;20038;-60
2021/06/18 05:25:59;;;;;;;12.18;5.20;;;26.40;62.60;;;;;;4990694;28;20036;-59
2021/06/18 05:28:25;;;;;;;8.40;5.07;;;26.40;62.70;;;;;;5007213;28;20113;-59
2021/06/18 05:30:50;;;;;;;9.07;5.03;;;26.40;62.80;;;;;;5008436;28;20109;-58
2021/06/18 05:33:16;;;;;;;10.60;4.93;;;26.40;62.80;;;;;;5007409;28;20520;-59
2021/06/18 05:35:44;;;;;;;9.40;4.88;;;26.40;62.80;;;;;;5006057;28;20069;-58
2021/06/18 05:38:09;;;;;;;7.55;5.05;;;26.40;62.80;;;;;;5007510;28;20029;-59
2021/06/18 05:40:35;;;;;;;9.45;4.93;;;26.40;62.80;;;;;;5000416;28;20095;-58
2021/06/18 05:43:03;;;;;;;10.95;6.22;;;26.30;62.90;;;;;;5005255;28;20029;-58
2021/06/18 05:45:32;;;;;;;9.95;4.95;;;26.30;62.90;;;;;;5004740;28;20038;-59
2021/06/18 05:47:58;;;;;;;11.20;4.78;;;26.30;63.20;;;;;;5006094;28;20386;-58
2021/06/18 05:50:23;;;;;;;6.00;4.40;;;26.30;62.90;;;;;;5005858;28;20041;-58
2021/06/18 05:52:49;;;;;;;10.27;5.25;;;26.30;62.90;;;;;;5006539;28;20041;-59
2021/06/18 05:55:14;;;;;;;9.60;4.95;;;26.30;63.70;;;;;;5007253;28;20542;-59
2021/06/18 05:57:41;;;;;;;9.07;5.13;;;26.30;63.00;;;;;;5007340;28;20024;-59
2021/06/18 06:00:07;;;;;;;10.05;5.32;;;26.40;63.40;;;;;;4988396;28;20072;-59
2021/06/18 06:02:33;;;;;;;8.40;4.82;;;26.40;63.70;;;;;;5004174;28;20026;-58
2021/06/18 06:04:58;;;;;;;11.00;4.57;;;26.40;63.60;;;;;;5004135;28;20060;-59
2021/06/18 06:07:24;;;;;;;6.30;5.32;;;26.30;63.30;;;;;;5005297;28;20459;-59
2021/06/18 06:09:49;;;;;;;13.90;5.45;;;26.40;63.40;;;;;;5006298;28;20136;-59
2021/06/18 06:12:15;;;;;;;11.98;5.22;;;26.40;63.50;;;;;;5005245;28;20033;-59
2021/06/18 06:14:40;;;;;;;12.88;5.78;;;26.40;64.00;;;;;;5003032;28;20056;-59
2021/06/18 06:17:06;;;;;;;11.82;4.85;;;26.40;63.60;;;;;;5002558;28;20037;-58
2021/06/18 06:19:32;;;;;;;9.07;5.45;;;26.40;64.00;;;;;;5005490;28;20366;-58
2021/06/18 06:21:57;;;;;;;31.33;6.50;;;26.40;63.80;;;;;;5001435;28;20038;-58
2021/06/18 06:24:23;;;;;;;15.68;5.90;;;26.40;64.20;;;;;;5002440;28;20022;-59
2021/06/18 06:26:48;;;;;;;16.85;5.40;;;26.40;63.90;;;;;;5004032;28;20394;-59
2021/06/18 06:29:14;;;;;;;19.42;6.10;;;26.40;63.80;;;;;;5001513;28;20281;-59
2021/06/18 06:31:43;;;;;;;20.42;5.80;;;26.40;64.10;;;;;;5002477;28;20061;-58
2021/06/18 06:34:09;;;;;;;20.45;5.93;;;26.40;64.00;;;;;;5003929;28;20103;-59
2021/06/18 06:36:34;;;;;;;18.73;6.40;;;26.40;63.70;;;;;;5006267;28;20026;-58
2021/06/18 06:39:02;;;;;;;23.50;6.25;;;26.50;64.00;;;;;;4986683;28;20875;-59
2021/06/18 06:41:27;;;;;;;26.17;6.30;;;26.40;64.10;;;;;;5004026;28;20025;-59
2021/06/18 06:43:53;;;;;;;26.75;6.63;;;26.50;64.20;;;;;;4987785;28;20398;-58
2021/06/18 06:46:20;;;;;;;35.72;6.30;;;26.50;64.40;;;;;;5004609;28;20449;-59
2021/06/18 06:48:45;;;;;;;29.95;6.55;;;26.50;64.40;;;;;;5005476;28;20724;-59
2021/06/18 06:51:11;;;;;;;36.72;7.28;;;26.50;64.40;;;;;;5002809;28;20026;-59
2021/06/18 06:53:36;;;;;;;37.50;7.82;;;26.50;64.70;;;;;;5002275;28;20499;-60
2021/06/18 06:56:02;;;;;;;34.03;7.05;;;26.50;64.70;;;;;;5002750;28;20449;-58
2021/06/18 06:58:28;;;;;;;53.83;8.23;;;26.50;64.70;;;;;;5004447;28;20160;-58
2021/06/18 07:00:53;;;;;;;50.05;7.63;;;26.60;64.90;;;;;;5002657;28;20270;-57
2021/06/18 07:03:19;;;;;;;45.65;8.48;;;26.60;65.20;;;;;;5003864;28;20489;-59
2021/06/18 07:05:44;;;;;;;68.00;10.50;;;26.60;65.40;;;;;;5000808;28;20108;-59
2021/06/18 07:08:17;;;;;;;170.95;17.77;;;26.60;65.70;;;;;;4994456;28;20109;-60
2021/06/18 07:10:43;;;;;;;74.00;10.38;;;26.60;66.10;;;;;;5003787;28;20037;-59
2021/06/18 07:13:08;;;;;;;48.65;6.97;;;26.50;66.10;;;;;;4969833;28;20026;-59
2021/06/18 07:15:34;;;;;;;35.13;7.15;;;26.60;66.30;;;;;;5001713;28;20497;-59
2021/06/18 07:17:59;;;;;;;65.03;9.57;;;26.50;66.70;;;;;;5002767;28;20050;-62
2021/06/18 07:20:25;;;;;;;60.47;9.55;;;26.50;66.70;;;;;;5001940;28;20052;-60
2021/06/18 07:22:50;;;;;;;47.42;7.22;;;26.50;66.90;;;;;;5000592;28;20213;-58
2021/06/18 07:25:16;;;;;;;69.63;9.05;;;26.50;67.10;;;;;;4999847;28;20152;-59
2021/06/18 07:27:41;;;;;;;68.75;9.20;;;26.50;67.00;;;;;;5004067;28;20091;-58
2021/06/18 07:30:07;;;;;;;42.67;7.20;;;26.50;67.20;;;;;;5004074;28;20538;-58
2021/06/18 07:32:33;;;;;;;43.03;6.72;;;26.50;67.20;;;;;;5002907;28;20046;-59
2021/06/18 07:34:58;;;;;;;58.22;8.55;;;26.50;66.80;;;;;;5002487;28;20060;-58
2021/06/18 07:37:24;;;;;;;53.28;8.48;;;26.50;67.00;;;;;;5003221;28;20627;-59
2021/06/18 07:39:49;;;;;;;47.03;8.05;;;26.50;67.10;;;;;;4998929;28;20533;-59
2021/06/18 07:42:15;;;;;;;34.47;7.40;;;26.50;67.10;;;;;;5001060;28;20605;-59
2021/06/18 07:44:40;;;;;;;41.53;7.63;;;26.50;67.00;;;;;;5000611;28;20065;-59
2021/06/18 07:47:06;;;;;;;47.22;8.05;;;26.50;67.00;;;;;;5000603;28;20034;-58
2021/06/18 07:49:32;;;;;;;37.05;7.80;;;26.50;66.90;;;;;;5001692;28;20065;-59
2021/06/18 07:51:58;;;;;;;20.98;5.85;;;26.50;67.10;;;;;;5003855;28;20061;-58
2021/06/18 07:54:23;;;;;;;77.15;10.57;;;26.60;66.90;;;;;;5004437;28;20030;-58
2021/06/18 07:56:49;;;;;;;63.28;9.55;;;26.60;66.40;;;;;;5002910;28;20092;-59
2021/06/18 07:59:14;;;;;;;110.43;12.63;;;26.60;66.40;;;;;;5000174;28;20244;-59
2021/06/18 08:01:40;;;;;;;48.00;9.38;;;26.60;66.60;;;;;;4999647;28;20133;-58
2021/06/18 08:04:06;;;;;;;120.93;13.75;;;26.60;66.30;;;;;;4999738;28;20164;-58
2021/06/18 08:06:31;;;;;;;43.55;7.38;;;26.60;66.40;;;;;;4982377;28;20113;-59
2021/06/18 08:08:57;;;;;;;46.17;8.18;;;26.60;65.40;;;;;;5001985;28;20057;-59
2021/06/18 08:11:22;;;;;;;29.50;6.80;;;26.70;65.50;;;;;;4998702;28;20445;-60
2021/06/18 08:13:48;;;;;;;38.50;7.93;;;26.70;65.80;;;;;;4998946;28;20510;-59
2021/06/18 08:16:13;;;;;;;63.95;10.25;;;26.70;65.70;;;;;;4999101;28;20036;-59
2021/06/18 08:18:39;;;;;;;39.72;7.60;;;26.70;65.70;;;;;;5000537;28;20041;-60
2021/06/18 08:21:05;;;;;;;53.38;9.02;;;26.70;65.50;;;;;;4996365;28;20080;-59
2021/06/18 08:23:30;;;;;;;61.58;9.07;;;26.70;65.40;;;;;;4982700;28;20051;-60
2021/06/18 08:25:56;;;;;;;51.60;8.88;;;26.70;65.10;;;;;;4999167;28;20531;-60
2021/06/18 08:28:22;;;;;;;37.60;7.40;;;26.70;65.00;;;;;;4998394;28;20038;-59
2021/06/18 08:30:47;;;;;;;50.88;8.32;;;26.70;64.40;;;;;;5003109;28;20034;-60
2021/06/18 08:33:13;;;;;;;60.97;11.10;;;26.80;64.60;;;;;;5001995;28;20112;-60
2021/06/18 08:35:38;;;;;;;48.40;7.80;;;26.80;64.10;;;;;;5001910;28;20160;-61
2021/06/18 08:38:04;;;;;;;69.32;9.98;;;26.80;63.80;;;;;;5000621;28;20029;-60
2021/06/18 08:40:30;;;;;;;49.65;8.95;;;26.80;63.80;;;;;;4999900;28;20033;-60
2021/06/18 08:42:56;;;;;;;43.90;8.65;;;26.90;63.60;;;;;;5000467;28;20041;-60
2021/06/18 08:45:21;;;;;;;31.23;7.30;;;26.90;63.40;;;;;;4998719;28;20061;-59
2021/06/18 08:47:49;;;;;;;38.20;7.68;;;26.80;62.90;;;;;;5001795;28;20112;-61
2021/06/18 08:50:22;;;;;;;27.02;7.90;;;26.90;62.90;;;;;;4967879;28;20026;-60
2021/06/18 08:52:47;;;;;;;37.40;7.43;;;27.00;62.70;;;;;;4999967;28;20161;-60
2021/06/18 08:55:16;;;;;;;94.43;13.13;;;27.00;62.70;;;;;;4982015;28;20533;-59
2021/06/18 08:57:41;;;;;;;90.63;10.95;;;27.00;62.80;;;;;;4999976;28;20130;-60
2021/06/18 09:00:07;;;;;;;62.88;9.23;;;27.00;62.70;;;;;;4999758;28;20442;-61
2021/06/18 09:02:33;;;;;;;54.45;9.20;;;27.00;62.70;;;;;;4999137;28;20034;-60
2021/06/18 09:05:00;;;;;;;45.67;8.20;;;27.10;62.60;;;;;;4999616;28;20113;-60
2021/06/18 09:07:26;;;;;;;69.53;11.40;;;27.10;62.40;;;;;;4999591;28;20022;-60
2021/06/18 09:09:51;;;;;;;72.38;9.60;;;27.10;62.70;;;;;;5001029;28;20490;-60
2021/06/18 09:12:18;;;;;;;63.72;9.93;;;27.10;62.70;;;;;;4999318;28;20049;-60
2021/06/18 09:14:43;;;;;;;60.33;10.15;;;27.10;62.70;;;;;;4999950;28;20489;-60
2021/06/18 09:17:12;;;;;;;66.03;9.65;;;27.20;62.90;;;;;;5002241;28;20111;-60
2021/06/18 09:20:03;;;;;;;43.83;8.25;;;27.30;62.90;;;;;;5000668;28;20042;-60
2021/06/18 09:22:36;;;;;;;46.63;10.30;;;27.20;62.40;;;;;;4998240;28;20073;-61
2021/06/18 09:25:13;;;;;;;66.15;10.63;;;27.30;62.50;;;;;;4966234;28;20405;-61
2021/06/18 09:27:53;;;;;;;50.72;9.00;;;27.30;62.60;;;;;;4983849;28;20667;-61
2021/06/18 09:30:19;;;;;;;57.88;9.00;;;27.30;62.70;;;;;;5014402;28;20096;-59
2021/06/18 09:33:01;;;;;;;52.33;9.32;;;27.40;63.00;;;;;;5001435;28;20132;-60
2021/06/18 09:35:27;;;;;;;49.25;9.55;;;27.40;63.20;;;;;;5000792;28;20320;-60
2021/06/18 09:37:57;;;;;;;51.78;9.18;;;27.50;63.20;;;;;;4985548;28;20032;-60
2021/06/18 09:40:23;;;;;;;45.85;10.25;;;27.50;63.10;;;;;;5002265;28;20034;-60
2021/06/18 09:42:53;;;;;;;91.15;13.07;;;27.50;63.10;;;;;;5000144;28;20057;-61
2021/06/18 09:45:32;;;;;;;88.32;12.07;;;27.50;63.30;;;;;;4999299;28;20097;-57
2021/06/18 09:48:23;;;;;;;90.53;13.13;;;27.60;63.20;;;;;;4984484;28;20599;-60
2021/06/18 09:50:59;;;;;;;67.90;10.93;;;27.70;63.10;;;;;;4999276;28;20053;-60
2021/06/18 09:53:25;;;;;;;60.05;11.90;;;27.70;62.90;;;;;;5000808;28;20038;-60
2021/06/18 09:56:04;;;;;;;41.92;9.60;;;27.70;62.70;;;;;;5000880;28;20107;-60
2021/06/18 09:58:42;;;;;;;52.00;9.57;;;27.90;62.70;;;;;;5005104;28;20018;-59
2021/06/18 10:01:19;;;;;;;59.35;10.15;;;27.80;62.60;;;;;;5004963;28;20029;-60
2021/06/18 10:04:03;;;;;;;74.07;11.35;;;27.80;62.30;;;;;;5005488;28;20147;-60
2021/06/18 10:06:30;;;;;;;97.35;13.38;;;27.90;62.40;;;;;;5004850;28;20038;-60
2021/06/18 10:08:57;;;;;;;54.97;10.88;;;27.90;62.10;;;;;;5002662;28;20565;-61
2021/06/18 10:11:22;;;;;;;33.45;8.35;;;28.00;62.20;;;;;;5019344;28;20670;-61
2021/06/18 10:13:48;;;;;;;28.38;7.68;;;28.00;62.40;;;;;;5003933;28;20038;-60
2021/06/18 10:16:16;;;;;;;59.55;10.60;;;28.00;61.20;;;;;;5004075;28;20033;-61
2021/06/18 10:18:42;;;;;;;57.03;9.70;;;28.10;61.50;;;;;;4988744;28;20201;-60
2021/06/18 10:21:07;;;;;;;53.17;9.55;;;28.10;61.40;;;;;;5005620;28;20726;-61
2021/06/18 10:23:33;;;;;;;45.47;9.23;;;28.10;61.40;;;;;;5003523;28;20050;-60
2021/06/18 10:25:59;;;;;;;50.78;9.27;;;28.10;61.30;;;;;;5004682;28;20037;-61
2021/06/18 10:28:26;;;;;;;66.50;12.40;;;28.20;61.10;;;;;;5020482;28;20549;-61
2021/06/18 10:30:54;;;;;;;40.78;8.23;;;28.20;61.30;;;;;;5004859;28;20040;-60
2021/06/18 10:33:25;;;;;;;30.60;6.78;;;28.30;61.30;;;;;;4989058;28;20037;-61
2021/06/18 10:36:11;;;;;;;30.48;7.43;;;28.30;60.90;;;;;;5004932;28;20050;-61
2021/06/18 10:38:41;;;;;;;49.97;9.90;;;28.40;60.80;;;;;;5003644;28;20029;-60
2021/06/18 10:41:12;;;;;;;40.22;9.55;;;28.50;60.90;;;;;;5005912;28;20045;-61
2021/06/18 10:43:41;;;;;;;46.67;9.20;;;28.50;60.50;;;;;;5005259;28;20038;-60
2021/06/18 10:46:17;;;;;;;42.78;8.32;;;28.60;60.10;;;;;;5003424;28;20568;-61
2021/06/18 10:48:52;;;;;;;50.90;9.65;;;28.60;60.10;;;;;;5003778;28;20137;-61
2021/06/18 10:51:29;;;;;;;41.20;9.40;;;28.70;60.40;;;;;;5003264;28;20032;-61
2021/06/18 10:54:05;;;;;;;51.65;8.73;;;28.70;60.00;;;;;;5001144;28;20042;-61
2021/06/18 10:56:46;;;;;;;;;;;28.80;60.30;;;;;;5003632;28;20021;-60
2021/06/18 10:59:27;;;;;;;58.95;10.05;;;28.90;60.40;;;;;;5018737;28;19917;-60
2021/06/18 11:01:53;;;;;;;50.70;8.65;;;28.90;60.00;;;;;;4996446;28;20117;-60
2021/06/18 11:04:42;;;;;;;52.25;11.20;;;29.00;59.80;;;;;;5003455;28;20552;-61
2021/06/18 11:07:27;;;;;;;73.18;11.15;;;29.10;59.60;;;;;;5003296;28;20429;-61
2021/06/18 11:10:03;;;;;;;72.28;12.25;;;29.20;59.20;;;;;;5001401;28;20477;-61
2021/06/18 11:12:29;;;;;;;87.38;12.60;;;29.30;59.50;;;;;;5000274;28;20041;-60
2021/06/18 11:15:15;;;;;;;58.78;9.70;;;29.30;59.20;;;;;;5000909;28;20038;-60
2021/06/18 11:17:41;;;;;;;73.05;10.93;;;29.40;58.80;;;;;;4997223;28;20038;-61
2021/06/18 11:20:10;;;;;;;110.85;14.40;;;29.50;59.10;;;;;;5002726;28;20501;-60
2021/06/18 11:22:47;;;;;;;90.85;12.82;;;29.50;58.70;;;;;;5001467;28;20140;-61
2021/06/18 11:28:21;;;;;;;80.25;11.15;;;29.70;58.20;;;;;;5002677;28;20029;-61
2021/06/18 11:31:02;;;;;;;75.53;11.18;;;29.70;58.00;;;;;;5001754;28;20033;-61
2021/06/18 11:33:46;;;;;;;86.35;11.90;;;29.80;57.90;;;;;;5000934;28;20076;-60
2021/06/18 11:36:21;;;;;;;52.50;10.15;;;29.80;57.50;;;;;;5000914;28;20133;-60
2021/06/18 11:38:48;;;;;;;49.10;8.82;;;29.90;57.20;;;;;;4991694;28;20065;-60
2021/06/18 11:41:17;;;;;;;64.28;9.18;;;30.00;57.10;;;;;;4994943;28;20092;-60
2021/06/18 11:43:42;;;;;;;39.13;8.50;;;30.00;56.40;;;;;;4982159;28;20014;-60
2021/06/18 11:46:08;;;;;;;48.75;9.55;;;30.10;56.20;;;;;;5001474;28;20033;-61
2021/06/18 11:48:33;;;;;;;32.15;7.85;;;30.20;56.20;;;;;;5001840;28;20296;-61
2021/06/18 11:50:59;;;;;;;49.03;7.88;;;30.20;55.60;;;;;;4994753;28;20049;-61
2021/06/18 11:53:34;;;;;;;66.97;10.32;;;30.30;55.40;;;;;;4993892;28;20092;-60
2021/06/18 11:56:04;;;;;;;38.65;7.68;;;30.40;55.40;;;;;;4978876;28;20121;-60
2021/06/18 11:58:39;;;;;;;32.60;7.90;;;30.50;55.00;;;;;;5008687;28;20136;-60
2021/06/18 12:01:13;;;;;;;91.63;12.93;;;30.50;54.70;;;;;;4996153;28;20064;-60
2021/06/18 12:03:39;;;;;;;33.00;8.15;;;30.60;54.70;;;;;;4993807;28;20018;-61
2021/06/18 12:06:15;;;;;;;51.65;9.05;;;30.70;54.60;;;;;;4996797;28;20155;-61
2021/06/18 12:09:17;;;;;;;35.25;8.23;;;30.70;54.70;;;;;;4998471;28;20045;-60
2021/06/18 12:11:56;;;;;;;31.50;6.30;;;30.80;53.80;;;;;;5009255;28;20105;-60
2021/06/18 12:14:21;;;;;;;26.90;6.63;;;30.90;53.50;;;;;;5001723;28;20017;-60
2021/06/18 12:16:48;;;;;;;20.23;6.50;;;30.90;53.10;;;;;;5003224;28;20063;-61
2021/06/18 12:19:26;;;;;;;21.13;6.47;;;31.00;53.40;;;;;;5001458;28;20474;-61
2021/06/18 12:22:07;;;;;;;25.88;6.35;;;31.10;53.40;;;;;;5003250;28;20165;-60
2021/06/18 12:24:38;;;;;;;20.15;5.85;;;31.10;52.90;;;;;;4998516;28;20038;-60
2021/06/18 12:27:08;;;;;;;28.02;7.25;;;31.20;52.80;;;;;;4986122;28;20041;-60
2021/06/18 12:29:37;;;;;;;19.55;6.18;;;31.20;52.90;;;;;;4999089;28;20053;-60
2021/06/18 12:32:03;;;;;;;25.95;6.88;;;31.20;52.60;;;;;;4983687;28;20533;-60
2021/06/18 12:34:28;;;;;;;21.55;6.32;;;31.30;52.80;;;;;;4981982;28;20092;-60
2021/06/18 12:37:07;;;;;;;27.65;7.07;;;31.40;52.50;;;;;;5002434;28;20080;-60
2021/06/18 12:39:48;;;;;;;24.42;5.90;;;31.40;52.40;;;;;;5001454;28;20034;-60
2021/06/18 12:42:23;;;;;;;19.30;6.63;;;31.50;51.80;;;;;;4999880;28;21577;-60
2021/06/18 12:45:06;;;;;;;;;;;31.60;51.80;;;;;;5001937;28;20046;-61
2021/06/18 12:47:32;;;;;;;24.77;5.85;;;31.60;51.40;;;;;;5032720;28;20599;-60